FACT

Cape Town International Airport

Airport
ICAO code
FACT
IATA Code
CPT
Summary
ICAO Region
AFI
ICAO Territory
Location

, Western Cape

Serving
Cape Town
Elevation
151 ft
Coordinates
33° 57' 53" S , 18° 36' 6" E
Metar
Observation
FACT 171300Z 31016KT 5000 -RA SCT010 BKN028 15/14 Q1010 TEMPO 4000
Station
Cape Town, Cape Town International Airport
Date/Time
2022-08-17 13:00:00
Wind direction
310°
Wind speed
16 kts
Lowest cloud amount
scattered clouds
Temperature
15°C
Dew point
14°C
Humidity
93%
QNH
1010 hPa
Weather condition
n/a

Runways

Designator Length Width Surface Rops
16/34 1701 46 ASP Yes/Yes
1/19 3201 61 ASP Yes/Yes

Airport map

Aerial View

SKYbrary Partners:

Safety knowledge contributed by: